Time;durP1;ratioP1;P1;durP2;ratioP2;P2;SDS_P1;SDS_P2;PMS_P1;PMS_P2;Temp;Humidity;BMP_temperature;BMP_pressure;BME280_temperature;BME280_humidity;BME280_pressure;Samples;Min_cycle;Max_cycle;Signal;HPM_P1;HPM_P2
2022/04/27 00:00:58;;;;;;;0.93;0.93;;;8.20;99.90;;;;;;5112928;28;20208;-83
2022/04/27 00:03:26;;;;;;;0.45;0.45;;;8.10;99.90;;;;;;5113184;28;20353;-83
2022/04/27 00:05:55;;;;;;;0.75;0.75;;;8.20;99.90;;;;;;5113081;28;20219;-83
2022/04/27 00:08:23;;;;;;;0.70;0.70;;;8.10;99.90;;;;;;5113672;28;20211;-83
2022/04/27 00:10:53;;;;;;;1.02;1.02;;;8.10;99.90;;;;;;5113038;28;20305;-83
2022/04/27 00:13:21;;;;;;;0.90;0.90;;;8.10;99.90;;;;;;5113307;28;20282;-83
2022/04/27 00:15:49;;;;;;;0.80;0.80;;;8.10;99.90;;;;;;5113148;28;20227;-83
2022/04/27 00:18:18;;;;;;;0.82;0.82;;;8.10;99.90;;;;;;5113325;28;20228;-84
2022/04/27 00:20:46;;;;;;;1.40;1.27;;;8.10;99.90;;;;;;5113268;28;20267;-83
2022/04/27 00:23:15;;;;;;;0.95;0.95;;;8.10;99.90;;;;;;5112985;28;20283;-83
2022/04/27 00:25:44;;;;;;;0.60;0.60;;;8.10;99.90;;;;;;5112969;28;20302;-83
2022/04/27 00:28:14;;;;;;;0.82;0.82;;;8.10;99.90;;;;;;5113119;28;20212;-83
2022/04/27 00:30:42;;;;;;;0.57;0.57;;;8.10;99.90;;;;;;5112785;28;20276;-83
2022/04/27 00:33:11;;;;;;;0.98;0.90;;;8.10;99.90;;;;;;5113557;28;20310;-83
2022/04/27 00:35:39;;;;;;;0.63;0.63;;;8.10;99.90;;;;;;5113111;28;20196;-83
2022/04/27 00:38:08;;;;;;;2.53;0.80;;;8.10;99.90;;;;;;5112948;28;20283;-83
2022/04/27 00:40:36;;;;;;;0.60;0.60;;;8.10;99.90;;;;;;5113035;28;20267;-83
2022/04/27 00:43:04;;;;;;;0.77;0.77;;;8.10;99.90;;;;;;5112824;28;20315;-83
2022/04/27 00:45:34;;;;;;;0.60;0.60;;;8.10;99.90;;;;;;5112785;28;20311;-83
2022/04/27 00:48:03;;;;;;;0.68;0.65;;;8.10;99.90;;;;;;5113124;28;20488;-83
2022/04/27 00:50:31;;;;;;;0.73;0.73;;;8.10;99.90;;;;;;5112849;28;20264;-83
2022/04/27 00:53:00;;;;;;;0.57;0.57;;;8.10;99.90;;;;;;5112995;28;20228;-83
2022/04/27 00:55:30;;;;;;;0.63;0.63;;;8.10;99.90;;;;;;5113815;28;20279;-83
2022/04/27 00:57:59;;;;;;;0.85;0.85;;;8.10;99.90;;;;;;5116490;28;20207;-84
2022/04/27 01:00:27;;;;;;;0.40;0.40;;;8.10;99.90;;;;;;5116217;28;20211;-84
2022/04/27 01:02:57;;;;;;;0.68;0.68;;;8.10;99.90;;;;;;5116457;28;20227;-83
2022/04/27 01:05:26;;;;;;;0.40;0.40;;;8.10;99.90;;;;;;5116634;28;20269;-84
2022/04/27 01:07:59;;;;;;;0.50;0.50;;;8.10;99.90;;;;;;5116253;27;20290;-83
2022/04/27 01:10:28;;;;;;;0.63;0.63;;;8.10;99.90;;;;;;5116385;28;20202;-83
2022/04/27 01:12:58;;;;;;;0.30;0.30;;;8.10;99.90;;;;;;5116459;28;20231;-84
2022/04/27 01:15:33;;;;;;;0.95;0.88;;;8.10;99.90;;;;;;5116042;28;20227;-83
2022/04/27 01:18:04;;;;;;;0.50;0.50;;;8.10;99.90;;;;;;5116215;28;20286;-83
2022/04/27 01:20:36;;;;;;;0.30;0.30;;;8.10;99.90;;;;;;5115474;28;20231;-84
2022/04/27 01:23:04;;;;;;;1.08;0.73;;;8.10;99.90;;;;;;5115931;28;20318;-83
2022/04/27 01:25:55;;;;;;;0.65;0.65;;;8.10;99.90;;;;;;5116253;28;20219;-83
2022/04/27 01:28:25;;;;;;;0.47;0.47;;;8.10;99.90;;;;;;5115964;28;20260;-83
2022/04/27 01:30:58;;;;;;;0.95;0.68;;;8.10;99.90;;;;;;5115401;28;20224;-83
2022/04/27 01:33:27;;;;;;;0.57;0.57;;;8.00;99.90;;;;;;5115866;28;20251;-83
2022/04/27 01:35:58;;;;;;;0.52;0.52;;;8.10;99.90;;;;;;5115544;28;20227;-83
2022/04/27 01:38:27;;;;;;;0.50;0.50;;;8.10;99.90;;;;;;5115862;28;20200;-83
2022/04/27 01:40:56;;;;;;;0.40;0.40;;;8.10;99.90;;;;;;5115592;28;20285;-84
2022/04/27 01:43:24;;;;;;;0.90;0.90;;;8.10;99.90;;;;;;5115163;28;20294;-83
2022/04/27 01:45:53;;;;;;;0.40;0.40;;;8.10;99.90;;;;;;5115423;28;20287;-83
2022/04/27 01:48:22;;;;;;;0.45;0.45;;;8.10;99.90;;;;;;5115402;28;20246;-83
2022/04/27 01:50:50;;;;;;;0.63;0.63;;;8.10;99.90;;;;;;5115549;28;20242;-84
2022/04/27 01:56:06;;;;;;;0.65;0.65;;;8.20;99.90;;;;;;5115409;27;20202;-83
2022/04/27 01:58:34;;;;;;;0.60;0.50;;;8.10;99.90;;;;;;5115249;28;20294;-83
2022/04/27 02:01:03;;;;;;;0.50;0.50;;;8.20;99.90;;;;;;5115139;28;20282;-84
2022/04/27 02:03:32;;;;;;;0.43;0.43;;;8.20;99.90;;;;;;5115410;28;20238;-84
2022/04/27 02:06:00;;;;;;;0.77;0.47;;;8.10;99.90;;;;;;5115101;28;20223;-84
2022/04/27 02:08:30;;;;;;;0.50;0.50;;;8.10;99.90;;;;;;5115100;27;20200;-84
2022/04/27 02:10:59;;;;;;;0.70;0.70;;;8.10;99.90;;;;;;5114812;28;20278;-83
2022/04/27 02:13:27;;;;;;;1.13;0.73;;;8.10;99.90;;;;;;5114597;27;20231;-83
2022/04/27 02:15:55;;;;;;;0.70;0.70;;;8.10;99.90;;;;;;5114953;28;20203;-83
2022/04/27 02:18:24;;;;;;;0.70;0.63;;;8.10;99.90;;;;;;5115465;28;20221;-84
2022/04/27 02:20:52;;;;;;;0.32;0.32;;;8.10;99.90;;;;;;5114609;28;20223;-84
2022/04/27 02:23:22;;;;;;;0.52;0.52;;;8.10;99.90;;;;;;5114891;28;20253;-84
2022/04/27 02:25:52;;;;;;;0.43;0.43;;;8.10;99.90;;;;;;5114639;27;20215;-83
2022/04/27 02:28:20;;;;;;;0.60;0.60;;;8.10;99.90;;;;;;5114633;28;20280;-84
2022/04/27 02:30:48;;;;;;;0.50;0.50;;;8.10;99.90;;;;;;5114332;28;20228;-84
2022/04/27 02:33:17;;;;;;;0.47;0.47;;;8.10;99.90;;;;;;5114772;28;20233;-84
2022/04/27 02:35:45;;;;;;;0.65;0.65;;;8.10;99.90;;;;;;5114240;28;20212;-84
2022/04/27 02:38:13;;;;;;;0.50;0.50;;;8.10;99.90;;;;;;5114203;28;20282;-84
2022/04/27 02:40:41;;;;;;;0.60;0.60;;;8.00;99.90;;;;;;5113965;28;20279;-84
2022/04/27 02:43:11;;;;;;;0.40;0.40;;;8.10;99.90;;;;;;5114260;27;20288;-84
2022/04/27 02:45:41;;;;;;;0.68;0.68;;;8.10;99.90;;;;;;5114204;28;20216;-84
2022/04/27 02:48:10;;;;;;;0.60;0.60;;;8.00;99.90;;;;;;5114255;28;20298;-84
2022/04/27 02:53:24;;;;;;;0.50;0.50;;;8.10;99.90;;;;;;5113780;28;20291;-84
2022/04/27 02:55:53;;;;;;;0.88;0.88;;;8.10;99.90;;;;;;5113963;28;20305;-84
2022/04/27 02:58:23;;;;;;;0.68;0.68;;;8.10;99.90;;;;;;5114395;28;20277;-84
2022/04/27 03:00:52;;;;;;;1.25;1.15;;;8.10;99.90;;;;;;5113549;28;20231;-84
2022/04/27 03:03:21;;;;;;;0.68;0.68;;;8.10;99.90;;;;;;5113941;28;20294;-84
2022/04/27 03:05:49;;;;;;;1.02;1.02;;;8.10;99.90;;;;;;5113920;28;20223;-85
2022/04/27 03:08:17;;;;;;;1.23;1.13;;;8.10;99.90;;;;;;5113720;28;20224;-84
2022/04/27 03:10:47;;;;;;;0.90;0.90;;;8.10;99.90;;;;;;5113672;28;20294;-84
2022/04/27 03:13:15;;;;;;;1.50;1.17;;;8.10;99.90;;;;;;5113624;28;20292;-84
2022/04/27 03:15:45;;;;;;;0.82;0.82;;;8.10;99.90;;;;;;5113572;28;20230;-84
2022/04/27 03:18:19;;;;;;;1.13;1.13;;;8.00;99.90;;;;;;5113253;28;20875;-84
2022/04/27 03:20:49;;;;;;;1.92;1.42;;;8.10;99.90;;;;;;5113388;28;20199;-84
2022/04/27 03:23:18;;;;;;;1.35;1.35;;;8.10;99.90;;;;;;5113762;28;20212;-84
2022/04/27 03:25:46;;;;;;;1.00;1.00;;;8.10;99.90;;;;;;5113594;28;20307;-84
2022/04/27 03:28:15;;;;;;;2.33;1.45;;;8.10;99.90;;;;;;5113482;28;20328;-84
2022/04/27 03:30:45;;;;;;;1.55;1.45;;;8.10;99.90;;;;;;5113350;27;20223;-84
2022/04/27 03:33:13;;;;;;;1.17;1.10;;;8.10;99.90;;;;;;5113666;28;20216;-84
2022/04/27 03:35:41;;;;;;;1.83;1.73;;;8.10;99.90;;;;;;5113182;28;20278;-84
2022/04/27 03:38:10;;;;;;;1.48;1.17;;;8.10;99.90;;;;;;5113338;27;20238;-84
2022/04/27 03:40:38;;;;;;;1.85;1.75;;;8.10;99.90;;;;;;5113164;28;20204;-84
2022/04/27 03:43:07;;;;;;;1.15;1.15;;;8.10;99.90;;;;;;5113259;28;20280;-84
2022/04/27 03:45:35;;;;;;;1.90;1.80;;;8.10;99.90;;;;;;5113163;28;20276;-84
2022/04/27 03:48:06;;;;;;;1.67;1.58;;;8.10;99.90;;;;;;5113230;28;20233;-84
2022/04/27 03:50:35;;;;;;;1.60;1.50;;;8.10;99.90;;;;;;5113065;28;20220;-84
2022/04/27 03:53:04;;;;;;;2.08;1.98;;;8.10;99.90;;;;;;5113510;28;20216;-84
2022/04/27 03:55:33;;;;;;;2.42;1.92;;;8.10;99.90;;;;;;5113270;28;20200;-84
2022/04/27 03:58:02;;;;;;;1.73;1.63;;;8.10;99.90;;;;;;5113654;28;20191;-84
2022/04/27 04:00:31;;;;;;;1.90;1.80;;;8.10;99.90;;;;;;5112935;28;20219;-84
2022/04/27 04:03:00;;;;;;;3.08;2.38;;;8.10;99.90;;;;;;5112960;28;20314;-84
2022/04/27 04:05:31;;;;;;;1.52;1.42;;;8.20;99.90;;;;;;5113565;28;20200;-84
2022/04/27 04:07:59;;;;;;;2.22;2.03;;;8.20;99.90;;;;;;5112820;28;20310;-84
2022/04/27 04:10:27;;;;;;;1.85;1.75;;;8.20;99.90;;;;;;5112607;28;20211;-84
2022/04/27 04:12:55;;;;;;;3.15;2.28;;;8.10;99.90;;;;;;5113045;28;20310;-84
2022/04/27 04:15:24;;;;;;;2.17;1.98;;;8.20;99.90;;;;;;5112931;28;20231;-84
2022/04/27 04:17:53;;;;;;;1.90;1.80;;;8.20;99.90;;;;;;5113272;28;20228;-84
2022/04/27 04:20:21;;;;;;;1.30;1.23;;;8.20;99.90;;;;;;5112715;28;20204;-84
2022/04/27 04:22:51;;;;;;;2.33;2.13;;;8.20;99.90;;;;;;5113159;28;20251;-83
2022/04/27 04:30:51;;;;;;;1.80;1.70;;;8.30;99.90;;;;;;5113980;28;20207;-84
2022/04/27 04:33:19;;;;;;;2.00;1.88;;;8.30;99.90;;;;;;5116647;27;20203;-84
2022/04/27 04:35:48;;;;;;;2.75;2.08;;;8.20;99.90;;;;;;5116168;28;20204;-84
2022/04/27 04:38:18;;;;;;;2.33;2.13;;;8.20;99.90;;;;;;5116898;28;20291;-84
2022/04/27 04:40:47;;;;;;;3.47;2.30;;;8.20;99.90;;;;;;5116572;27;20207;-84
2022/04/27 04:43:15;;;;;;;3.03;2.78;;;8.30;99.90;;;;;;5117038;28;20259;-84
2022/04/27 04:45:44;;;;;;;2.45;2.17;;;8.30;99.90;;;;;;5116300;28;20287;-84
2022/04/27 04:48:12;;;;;;;2.08;1.98;;;8.30;99.90;;;;;;5116063;28;20224;-84
2022/04/27 04:50:41;;;;;;;2.35;2.15;;;8.30;99.90;;;;;;5116276;28;20243;-84
2022/04/27 04:53:09;;;;;;;2.35;2.15;;;8.30;99.90;;;;;;5116634;28;20238;-84
2022/04/27 04:55:39;;;;;;;2.60;2.40;;;8.40;99.90;;;;;;5116351;28;20267;-84
2022/04/27 04:58:09;;;;;;;2.00;1.90;;;8.40;99.90;;;;;;5116212;28;20287;-84
2022/04/27 05:00:39;;;;;;;1.83;1.73;;;8.40;99.90;;;;;;5116211;28;20238;-84
2022/04/27 05:03:08;;;;;;;1.85;1.75;;;8.40;99.90;;;;;;5116334;28;20230;-84
2022/04/27 05:05:39;;;;;;;2.03;1.83;;;8.40;99.90;;;;;;5116187;27;20283;-84
2022/04/27 05:08:09;;;;;;;2.10;2.00;;;8.40;99.90;;;;;;5116138;28;20252;-84
2022/04/27 05:10:38;;;;;;;2.47;2.30;;;8.40;99.90;;;;;;5115755;28;20279;-84
2022/04/27 05:13:07;;;;;;;1.85;1.75;;;8.40;99.90;;;;;;5115762;28;20307;-84
2022/04/27 05:15:35;;;;;;;2.33;2.13;;;8.40;99.90;;;;;;5115828;28;20283;-84
2022/04/27 05:18:03;;;;;;;1.92;1.83;;;8.40;99.90;;;;;;5116310;28;20224;-84
2022/04/27 05:20:32;;;;;;;1.90;1.80;;;8.50;99.90;;;;;;5115659;28;20299;-84
2022/04/27 05:23:00;;;;;;;2.30;1.83;;;8.50;99.90;;;;;;5115782;28;20223;-84
2022/04/27 05:25:28;;;;;;;1.65;1.55;;;8.50;99.90;;;;;;5115447;27;20226;-84
2022/04/27 05:27:58;;;;;;;2.95;2.17;;;8.50;99.90;;;;;;5115946;28;20310;-84
2022/04/27 05:33:12;;;;;;;1.83;1.73;;;8.50;99.90;;;;;;5115879;28;20302;-84
2022/04/27 05:35:41;;;;;;;1.80;1.70;;;8.50;99.90;;;;;;5115711;28;20280;-84
2022/04/27 05:38:09;;;;;;;2.88;2.15;;;8.50;99.90;;;;;;5115461;28;20279;-84
2022/04/27 05:40:39;;;;;;;2.83;2.50;;;8.50;99.90;;;;;;5115467;28;20253;-84
2022/04/27 05:43:09;;;;;;;3.85;2.85;;;8.60;99.90;;;;;;5115494;28;20244;-84
2022/04/27 05:45:37;;;;;;;1.90;1.80;;;8.60;99.90;;;;;;5114994;28;20268;-84
2022/04/27 05:48:06;;;;;;;1.95;1.85;;;8.60;99.90;;;;;;5115138;28;20302;-84
2022/04/27 05:50:36;;;;;;;2.00;1.90;;;8.60;99.90;;;;;;5115223;28;20207;-84
2022/04/27 05:53:04;;;;;;;1.83;1.73;;;8.60;99.90;;;;;;5115178;28;20220;-84
2022/04/27 05:55:32;;;;;;;2.08;1.98;;;8.60;99.90;;;;;;5115140;28;20211;-84
2022/04/27 05:58:01;;;;;;;3.05;1.95;;;8.60;99.90;;;;;;5115189;28;20260;-84
2022/04/27 06:00:31;;;;;;;1.90;1.80;;;8.60;99.90;;;;;;5115120;28;20267;-83
2022/04/27 06:03:00;;;;;;;1.73;1.63;;;8.60;99.90;;;;;;5115081;27;20231;-84
2022/04/27 06:05:29;;;;;;;2.20;2.00;;;8.60;99.90;;;;;;5114969;28;20203;-83
2022/04/27 06:07:57;;;;;;;1.38;1.38;;;8.60;99.90;;;;;;5114909;28;20304;-83
2022/04/27 06:10:26;;;;;;;1.92;1.83;;;8.60;99.90;;;;;;5114807;28;20235;-84
2022/04/27 06:12:54;;;;;;;1.90;1.80;;;8.60;99.90;;;;;;5115020;28;20291;-83
2022/04/27 06:15:22;;;;;;;1.55;1.48;;;8.60;99.90;;;;;;5114896;28;20287;-83
2022/04/27 06:17:52;;;;;;;3.40;2.00;;;8.60;99.90;;;;;;5114571;28;20204;-83
2022/04/27 06:20:21;;;;;;;2.13;2.03;;;8.60;99.90;;;;;;5113842;28;20238;-82
2022/04/27 06:22:49;;;;;;;1.85;1.70;;;8.60;99.90;;;;;;5114294;28;20227;-85
2022/04/27 06:25:18;;;;;;;10.75;2.17;;;8.60;99.90;;;;;;5115004;28;20291;-87
2022/04/27 06:27:47;;;;;;;2.00;1.85;;;8.60;99.90;;;;;;5114290;28;20234;-85
2022/04/27 06:30:15;;;;;;;1.70;1.60;;;8.60;99.90;;;;;;5114380;28;20232;-87
2022/04/27 06:32:44;;;;;;;1.55;1.45;;;8.70;99.90;;;;;;5114490;28;20267;-88
2022/04/27 06:35:20;;;;;;;3.03;2.05;;;8.70;99.90;;;;;;5114494;28;20200;-82
2022/04/27 06:37:48;;;;;;;2.13;1.70;;;8.70;99.90;;;;;;5115341;28;20215;-87
2022/04/27 06:40:16;;;;;;;1.35;1.35;;;8.70;99.90;;;;;;5114028;28;20283;-87
2022/04/27 06:46:45;;;;;;;1.52;1.42;;;8.70;99.90;;;;;;5114558;28;20219;-86
2022/04/27 06:49:22;;;;;;;1.40;1.30;;;8.70;99.90;;;;;;5114206;28;20223;-87
2022/04/27 06:51:54;;;;;;;1.20;1.20;;;8.70;99.90;;;;;;5114221;28;20216;-87
2022/04/27 06:54:35;;;;;;;0.98;0.98;;;8.80;99.90;;;;;;5113907;27;20248;-87
2022/04/27 06:57:05;;;;;;;1.73;1.63;;;8.80;99.90;;;;;;5114973;28;20196;-87
2022/04/27 06:59:54;;;;;;;1.50;1.38;;;8.80;99.90;;;;;;5114854;28;20211;-87
2022/04/27 07:02:31;;;;;;;2.35;1.58;;;8.80;99.90;;;;;;5114502;28;20226;-87
2022/04/27 07:05:01;;;;;;;1.60;1.50;;;8.90;99.90;;;;;;5114828;28;20203;-87
2022/04/27 07:07:31;;;;;;;2.00;1.90;;;8.90;99.90;;;;;;5114684;28;20359;-87
2022/04/27 07:10:00;;;;;;;1.17;1.15;;;8.90;99.90;;;;;;5114460;28;20188;-87
2022/04/27 07:12:28;;;;;;;1.73;1.63;;;9.00;99.90;;;;;;5114201;28;20250;-87
2022/04/27 07:14:57;;;;;;;1.55;1.50;;;9.10;99.90;;;;;;5114233;28;20192;-87
2022/04/27 07:17:25;;;;;;;1.30;1.30;;;9.10;99.90;;;;;;5114710;28;20196;-88
2022/04/27 07:19:53;;;;;;;1.88;1.73;;;9.20;99.90;;;;;;5114503;28;20282;-88
2022/04/27 07:22:25;;;;;;;1.30;1.20;;;9.20;99.90;;;;;;5114051;28;20310;-84
2022/04/27 07:24:55;;;;;;;2.00;1.33;;;9.30;99.90;;;;;;5114439;28;20188;-85
2022/04/27 07:27:23;;;;;;;1.92;1.48;;;9.30;99.90;;;;;;5114379;28;20230;-85
2022/04/27 07:29:57;;;;;;;2.45;2.20;;;9.30;99.90;;;;;;5113432;28;20243;-84
2022/04/27 07:32:26;;;;;;;2.05;1.77;;;9.30;99.90;;;;;;5114229;28;20225;-85
2022/04/27 07:34:54;;;;;;;3.80;1.88;;;9.30;99.90;;;;;;5114289;28;20192;-85
2022/04/27 07:37:22;;;;;;;1.85;1.75;;;9.30;99.90;;;;;;5113718;28;20195;-86
2022/04/27 07:39:51;;;;;;;2.22;1.95;;;9.30;99.90;;;;;;5114509;28;20223;-87
2022/04/27 07:42:21;;;;;;;2.15;1.95;;;9.40;99.90;;;;;;5115336;28;20232;-87
2022/04/27 07:44:50;;;;;;;2.15;2.00;;;9.40;99.90;;;;;;5116644;28;20222;-87
2022/04/27 07:47:18;;;;;;;4.50;2.00;;;9.50;99.90;;;;;;5117697;28;20230;-88
2022/04/27 07:49:47;;;;;;;2.65;2.08;;;9.50;99.90;;;;;;5113788;28;20212;-73
2022/04/27 07:52:21;;;;;;;1.40;1.40;;;9.60;99.90;;;;;;5110761;28;20310;-91
2022/04/27 07:54:52;;;;;;;1.60;1.52;;;9.70;99.90;;;;;;5097108;28;20204;-85
2022/04/27 07:57:24;;;;;;;1.67;1.58;;;9.70;99.90;;;;;;5096162;28;20196;-87
2022/04/27 07:59:55;;;;;;;2.15;2.05;;;9.80;99.90;;;;;;5094822;28;20196;-87
2022/04/27 08:02:29;;;;;;;1.92;1.83;;;9.80;99.90;;;;;;5093406;28;20220;-85
2022/04/27 09:22:18;;;;;;;3.55;2.95;;;10.90;99.90;;;;;;4927837;29;20221;-87
2022/04/27 09:25:30;;;;;;;3.28;2.63;;;11.00;99.90;;;;;;4938145;29;20284;-87
2022/04/27 09:28:19;;;;;;;3.38;3.17;;;11.00;99.90;;;;;;4918946;29;20199;-87
2022/04/27 09:30:49;;;;;;;2.95;2.75;;;11.10;99.90;;;;;;4919849;29;20302;-86
2022/04/27 09:33:33;;;;;;;2.90;2.70;;;11.10;99.90;;;;;;4936132;29;20209;-87
2022/04/27 09:36:03;;;;;;;2.95;2.75;;;11.10;99.90;;;;;;4938570;29;20297;-87
2022/04/27 09:38:41;;;;;;;3.13;2.92;;;11.00;99.90;;;;;;4938666;29;20226;-87
2022/04/27 09:41:10;;;;;;;3.65;3.35;;;10.90;99.90;;;;;;4938310;29;20210;-88
2022/04/27 09:43:43;;;;;;;3.42;3.15;;;10.90;99.90;;;;;;4938774;29;20248;-76
2022/04/27 09:46:22;;;;;;;3.40;3.15;;;11.00;99.90;;;;;;4938243;29;20273;-86
2022/04/27 09:49:11;;;;;;;3.22;3.03;;;10.90;99.90;;;;;;4938398;29;20230;-87
2022/04/27 09:52:01;;;;;;;3.03;2.83;;;10.80;99.90;;;;;;4937699;29;20221;-88
2022/04/27 09:54:32;;;;;;;3.20;2.97;;;10.80;99.90;;;;;;4938052;29;20288;-89
2022/04/27 09:57:01;;;;;;;4.50;3.20;;;10.80;99.90;;;;;;4937966;29;20297;-87
2022/04/27 09:59:31;;;;;;;3.80;3.10;;;10.80;99.90;;;;;;4938245;29;20270;-88
2022/04/27 10:02:05;;;;;;;3.35;3.05;;;10.80;99.90;;;;;;4937773;29;20222;-87
2022/04/27 10:04:36;;;;;;;3.30;3.05;;;10.80;99.90;;;;;;4937973;29;20209;-88
2022/04/27 10:07:09;;;;;;;3.72;3.33;;;10.90;99.90;;;;;;4938111;29;20211;-88
2022/04/27 10:09:37;;;;;;;3.95;3.53;;;10.70;99.90;;;;;;4938157;29;20233;-86
2022/04/27 10:12:28;;;;;;;5.10;4.43;;;10.70;99.90;;;;;;4937425;29;20229;-87
2022/04/27 10:14:59;;;;;;;2.88;2.67;;;10.70;99.90;;;;;;4939507;29;20218;-87
2022/04/27 10:17:29;;;;;;;4.05;3.67;;;10.70;99.90;;;;;;4956579;29;20240;-88
2022/04/27 10:19:58;;;;;;;3.65;3.35;;;10.80;99.90;;;;;;4939607;29;20222;-87
2022/04/27 10:22:30;;;;;;;3.72;3.42;;;10.80;99.90;;;;;;4937052;29;20316;-87
2022/04/27 10:25:05;;;;;;;5.97;3.92;;;10.80;99.90;;;;;;4937131;29;20221;-87
2022/04/27 10:27:39;;;;;;;3.13;2.83;;;11.00;99.90;;;;;;4936428;29;20228;-87
2022/04/27 10:30:11;;;;;;;4.32;3.80;;;11.10;99.90;;;;;;4935874;29;20252;-87
2022/04/27 10:32:46;;;;;;;4.53;4.13;;;11.10;99.90;;;;;;4937412;29;20233;-87
2022/04/27 10:35:29;;;;;;;5.40;3.75;;;11.20;99.90;;;;;;4937410;29;20237;-87
2022/04/27 10:38:06;;;;;;;3.45;3.15;;;11.20;99.90;;;;;;4936292;29;20205;-88
2022/04/27 10:40:50;;;;;;;3.50;3.28;;;11.30;99.90;;;;;;4937329;29;20195;-88
2022/04/27 10:43:46;;;;;;;4.07;3.67;;;11.30;99.90;;;;;;4955359;29;20205;-87
2022/04/27 10:46:51;;;;;;;3.70;3.40;;;11.40;99.90;;;;;;4937339;29;20214;-88
2022/04/27 10:50:15;;;;;;;3.67;3.38;;;11.60;99.90;;;;;;4937387;29;20276;-87
2022/04/27 10:53:15;;;;;;;3.75;3.47;;;11.60;99.90;;;;;;4937052;29;20228;-88
2022/04/27 10:55:57;;;;;;;3.40;3.10;;;11.70;99.90;;;;;;4936892;29;20194;-87
2022/04/27 10:58:28;;;;;;;3.85;3.55;;;11.80;99.90;;;;;;4937173;29;20206;-87
2022/04/27 11:01:43;;;;;;;3.35;3.15;;;11.90;99.90;;;;;;4936578;29;20245;-87
2022/04/27 11:04:21;;;;;;;4.90;3.45;;;12.00;99.90;;;;;;4937526;29;20202;-87
2022/04/27 11:07:21;;;;;;;2.88;2.67;;;12.00;99.90;;;;;;4936840;29;20244;-87
2022/04/27 11:10:16;;;;;;;3.25;2.97;;;12.10;99.90;;;;;;4936197;29;20229;-87
2022/04/27 11:13:00;;;;;;;3.10;2.90;;;12.10;99.90;;;;;;4936932;29;20268;-87
2022/04/27 11:15:32;;;;;;;4.75;3.03;;;12.00;99.90;;;;;;4936836;29;20228;-88
2022/04/27 11:18:13;;;;;;;3.03;2.83;;;12.10;99.90;;;;;;4936544;29;20213;-88
2022/04/27 11:20:52;;;;;;;3.00;2.80;;;12.10;99.90;;;;;;4936163;29;20206;-88
2022/04/27 11:23:28;;;;;;;3.90;3.60;;;12.20;99.90;;;;;;4947094;29;20261;-76
2022/04/27 11:26:02;;;;;;;2.78;2.58;;;12.50;99.90;;;;;;4955618;29;20212;-72
2022/04/27 11:28:39;;;;;;;3.03;2.80;;;12.60;99.90;;;;;;4955571;29;20228;-87
2022/04/27 11:31:20;;;;;;;3.78;3.40;;;12.90;99.90;;;;;;4945615;29;20232;-89
2022/04/27 11:34:24;;;;;;;3.22;2.92;;;13.10;99.90;;;;;;4936121;29;20225;-87
2022/04/27 11:37:24;;;;;;;2.83;2.63;;;13.30;99.90;;;;;;4934411;29;20213;-87
2022/04/27 11:39:53;;;;;;;3.13;2.67;;;13.10;99.90;;;;;;4936245;29;20289;-87
2022/04/27 11:42:25;;;;;;;3.00;2.80;;;12.90;99.90;;;;;;4935868;29;20273;-87
2022/04/27 11:44:58;;;;;;;2.70;2.50;;;12.70;99.90;;;;;;4935462;29;20261;-87
2022/04/27 11:47:28;;;;;;;3.10;2.88;;;12.70;99.90;;;;;;4935635;29;20205;-86
2022/04/27 11:50:03;;;;;;;3.05;2.85;;;12.50;99.90;;;;;;4917005;29;20237;-86
2022/04/27 11:52:32;;;;;;;4.03;3.13;;;12.50;99.90;;;;;;4916649;29;20234;-87
2022/04/27 11:55:09;;;;;;;3.47;3.17;;;12.50;99.90;;;;;;4916471;29;20226;-87
2022/04/27 11:57:40;;;;;;;3.15;2.90;;;12.60;99.90;;;;;;4925614;29;20269;-87
2022/04/27 12:00:10;;;;;;;3.35;3.05;;;12.90;99.90;;;;;;4936030;29;20209;-88
2022/04/27 12:06:23;;;;;;;3.20;2.90;;;14.20;99.90;;;;;;4905496;29;20273;-88
2022/04/27 12:08:52;;;;;;;2.38;2.20;;;14.40;99.90;;;;;;4918002;29;20206;-87
2022/04/27 12:11:47;;;;;;;2.35;2.20;;;14.40;99.90;;;;;;4916430;29;20254;-87
2022/04/27 12:14:24;;;;;;;2.72;2.53;;;14.00;99.90;;;;;;4916892;29;20198;-87
2022/04/27 12:16:55;;;;;;;4.78;3.30;;;13.80;99.90;;;;;;4906344;29;20225;-88
2022/04/27 12:19:29;;;;;;;3.38;3.08;;;13.90;99.90;;;;;;4916962;29;20209;-87
2022/04/27 12:22:13;;;;;;;3.83;2.72;;;13.90;99.90;;;;;;4916642;29;20237;-87
2022/04/27 12:25:02;;;;;;;3.03;2.60;;;14.10;99.90;;;;;;4916671;29;20266;-87
2022/04/27 12:31:37;;;;;;;2.75;2.55;;;14.10;99.90;;;;;;4911975;29;20264;-89
2022/04/27 12:37:29;;;;;;;2.53;2.33;;;13.90;99.90;;;;;;4916548;29;20214;-89
2022/04/27 12:40:18;;;;;;;2.65;2.45;;;13.50;99.90;;;;;;4917259;29;20251;-89
2022/04/27 12:43:20;;;;;;;2.28;2.17;;;13.30;99.90;;;;;;4897744;29;20238;-89
2022/04/27 12:46:15;;;;;;;3.67;2.70;;;13.30;99.90;;;;;;4910379;29;20210;-89
2022/04/27 12:49:50;;;;;;;3.42;3.13;;;13.30;99.90;;;;;;4915471;29;20270;-89
2022/04/27 12:53:15;;;;;;;2.75;2.55;;;13.30;99.90;;;;;;4841251;29;20301;-90
2022/04/27 12:55:46;;;;;;;4.90;2.70;;;13.40;99.90;;;;;;4889841;29;20258;-90
2022/04/27 12:58:24;;;;;;;2.63;2.45;;;13.20;99.90;;;;;;4910752;29;20210;-88
2022/04/27 13:00:56;;;;;;;4.13;3.25;;;13.10;99.90;;;;;;4901410;29;20297;-90
2022/04/27 13:03:26;;;;;;;3.50;3.08;;;13.20;99.90;;;;;;4901549;29;20203;-89
2022/04/27 13:06:03;;;;;;;3.63;3.33;;;13.20;99.90;;;;;;4913097;29;20202;-89
2022/04/27 13:08:40;;;;;;;4.13;3.72;;;13.40;99.90;;;;;;4919949;29;20217;-86
2022/04/27 13:15:38;;;;;;;3.90;2.75;;;13.80;99.90;;;;;;4861076;29;20239;-88
2022/04/27 13:18:07;;;;;;;3.47;3.20;;;14.10;99.90;;;;;;4848330;29;20211;-73
2022/04/27 13:20:39;;;;;;;4.13;3.45;;;14.30;99.90;;;;;;4912226;29;20206;-89
2022/04/27 13:23:10;;;;;;;3.22;2.90;;;14.40;99.90;;;;;;4901139;29;20296;-86
2022/04/27 13:25:39;;;;;;;3.92;3.53;;;14.50;99.90;;;;;;4912040;29;20218;-86
2022/04/27 13:28:12;;;;;;;3.58;3.13;;;14.60;99.90;;;;;;4919726;29;20211;-87
2022/04/27 13:30:47;;;;;;;3.97;3.58;;;14.70;99.90;;;;;;4921466;29;20268;-88
2022/04/27 13:33:16;;;;;;;3.95;3.60;;;14.60;99.90;;;;;;4904272;29;20255;-88
2022/04/27 13:35:48;;;;;;;3.10;2.90;;;14.50;99.90;;;;;;4919191;29;20216;-88
2022/04/27 13:38:18;;;;;;;3.83;3.50;;;14.50;99.90;;;;;;4919361;29;20209;-88
2022/04/27 13:40:51;;;;;;;5.07;3.33;;;14.40;99.90;;;;;;4905199;29;20203;-87
2022/04/27 13:44:04;;;;;;;4.07;3.72;;;14.20;99.90;;;;;;4919585;29;20246;-88
2022/04/27 13:46:35;;;;;;;3.58;3.28;;;14.10;99.90;;;;;;4912386;29;20212;-87
2022/04/27 13:49:07;;;;;;;3.53;3.28;;;14.00;99.90;;;;;;4919464;29;20234;-87
2022/04/27 13:51:38;;;;;;;3.17;2.97;;;13.90;99.90;;;;;;4918784;29;20234;-89
2022/04/27 13:54:14;;;;;;;3.63;3.28;;;13.70;99.90;;;;;;4919054;29;20203;-89
2022/04/27 13:56:43;;;;;;;4.38;3.38;;;13.50;99.90;;;;;;4919233;29;20212;-89
2022/04/27 14:01:55;;;;;;;4.47;4.07;;;13.20;99.90;;;;;;4918826;29;20318;-89
2022/04/27 14:04:29;;;;;;;3.80;3.50;;;13.10;99.90;;;;;;4918362;29;20202;-87
2022/04/27 14:06:59;;;;;;;5.32;4.82;;;13.00;99.90;;;;;;4937368;29;20216;-86
2022/04/27 14:09:30;;;;;;;3.85;3.55;;;12.90;99.90;;;;;;4922437;29;20226;-87
2022/04/27 14:18:43;;;;;;;3.03;2.83;;;12.80;99.90;;;;;;4841000;29;20213;-88
2022/04/27 14:21:12;;;;;;;5.15;4.20;;;12.70;99.90;;;;;;4913953;29;20277;-88
2022/04/27 14:23:40;;;;;;;4.05;3.65;;;12.70;99.90;;;;;;4919130;29;20207;-88
2022/04/27 14:26:10;;;;;;;4.75;4.32;;;12.60;99.90;;;;;;4913724;29;20258;-88
2022/04/27 14:28:39;;;;;;;3.88;3.58;;;12.60;99.90;;;;;;4918665;29;20210;-88
2022/04/27 14:31:08;;;;;;;4.18;3.80;;;12.50;99.90;;;;;;4918385;29;20283;-89
2022/04/27 14:33:37;;;;;;;4.32;3.92;;;12.50;99.90;;;;;;4919166;29;20262;-89
2022/04/27 14:36:06;;;;;;;4.00;3.70;;;12.50;99.90;;;;;;4919180;29;20207;-89
2022/04/27 14:38:34;;;;;;;5.35;4.38;;;12.50;99.90;;;;;;4918279;29;20286;-89
2022/04/27 14:41:04;;;;;;;3.65;3.35;;;12.60;99.90;;;;;;4917863;29;20199;-89
2022/04/27 14:43:34;;;;;;;5.57;4.10;;;12.60;99.90;;;;;;4918150;29;20214;-90
2022/04/27 14:46:05;;;;;;;3.97;3.67;;;12.70;99.90;;;;;;4918370;29;20210;-88
2022/04/27 14:48:34;;;;;;;4.80;4.30;;;12.70;99.90;;;;;;4918055;29;20295;-89
2022/04/27 14:51:23;;;;;;;4.13;3.83;;;12.60;99.90;;;;;;4917274;29;20232;-87
2022/04/27 14:53:53;;;;;;;6.22;4.45;;;12.60;99.90;;;;;;4910619;29;20207;-85
2022/04/27 14:56:23;;;;;;;5.22;4.57;;;12.60;99.90;;;;;;4917649;29;20210;-88
2022/04/27 14:58:53;;;;;;;4.28;3.88;;;12.60;99.90;;;;;;4918148;29;20222;-87
2022/04/27 15:01:23;;;;;;;4.72;4.32;;;12.50;99.90;;;;;;4917178;29;20222;-86
2022/04/27 15:03:51;;;;;;;4.28;3.90;;;12.50;99.90;;;;;;4917403;29;20210;-87
2022/04/27 15:06:20;;;;;;;4.35;3.97;;;12.50;99.90;;;;;;4917152;29;20214;-87
2022/04/27 15:08:48;;;;;;;4.55;3.95;;;12.50;99.90;;;;;;4916937;29;20234;-86
2022/04/27 15:11:17;;;;;;;3.70;3.40;;;12.50;99.90;;;;;;4916524;29;20317;-86
2022/04/27 15:13:46;;;;;;;5.38;4.28;;;12.50;99.90;;;;;;4916829;29;20249;-86
2022/04/27 15:16:16;;;;;;;3.75;3.45;;;12.50;99.90;;;;;;4916947;29;20310;-87
2022/04/27 15:18:46;;;;;;;4.97;4.45;;;12.50;99.90;;;;;;4917175;29;20230;-87
2022/04/27 15:24:06;;;;;;;4.75;4.30;;;12.40;99.90;;;;;;4916791;29;20270;-86